Terminal Aerodrome Forecast
Issued by NWS Atlanta, GA

Home | Current Version | Previous Version | Text Only | Print | Product List | Glossary On
Versions: 1 2 3 4 5 6 7 8 9 10 11 12 13 14 15 16 17 18 19 20 21 22 23 24 25 26 27 28 29 30 31 32 33 34 35 36 37 38 39 40 41 42
000
FTUS42 KFFC 301230 AAA
TAFATL
TAF AMD
KATL 301230Z 3012/0118 14010G18KT P6SM BKN010
     FM301500 15010G18KT P6SM BKN035
     FM301800 16013G23KT P6SM SCT045 BKN060
     FM010200 17010G20KT P6SM FEW050 BKN250
     FM010800 17012G20KT P6SM VCSH SCT012 BKN022 PROB30 0109/0111
      3SM TSRA BKN012CB OVC022
     FM011100 19012G24KT 4SM -TSRA SCT008 BKN012CB
     FM011400 24012G24KT P6SM VCSH SCT018 BKN025=

USA.gov is the U.S. government's official web portal to all federal, state and local government web resources and services.